Time,TemperatureF,DewpointF,PressureIn,WindDirection,WindDirectionDegrees,WindSpeedMPH,WindSpeedGustMPH,Humidity,HourlyPrecipIn,Conditions,Clouds,dailyrainin,SoftwareType,DateUTC
2013-06-17 00:11:00,66.9,66.0,30.05,SE,137,0.0,1.0,98,0.07,,,0.09,weatherlink.com 1.10,2013-06-17 04:11:00,
2013-06-17 00:41:00,66.6,66.0,30.04,SE,131,0.0,1.0,98,0.07,,,0.10,weatherlink.com 1.10,2013-06-17 04:41:00,
2013-06-17 00:56:00,66.4,66.0,30.04,SE,131,0.0,0.0,98,0.04,,,0.10,weatherlink.com 1.10,2013-06-17 04:56:00,
2013-06-17 01:11:00,66.1,66.0,30.03,SE,131,0.0,1.0,98,0.01,,,0.10,weatherlink.com 1.10,2013-06-17 05:11:00,
2013-06-17 01:26:00,65.8,65.0,30.03,SE,131,0.0,0.0,98,0.00,,,0.10,weatherlink.com 1.10,2013-06-17 05:26:00,
2013-06-17 01:56:00,65.9,66.0,30.03,ENE,64,0.0,3.0,99,0.00,,,0.10,weatherlink.com 1.10,2013-06-17 05:56:00,
2013-06-17 02:11:00,65.6,65.0,30.04,SE,132,0.0,0.0,98,0.00,,,0.10,weatherlink.com 1.10,2013-06-17 06:11:00,
2013-06-17 02:26:00,65.4,65.0,30.04,SE,132,0.0,1.0,99,0.00,,,0.10,weatherlink.com 1.10,2013-06-17 06:26:00,
2013-06-17 02:41:00,65.4,65.0,30.03,SE,145,0.0,2.0,99,0.00,,,0.10,weatherlink.com 1.10,2013-06-17 06:41:00,
2013-06-17 02:56:00,65.4,65.0,30.03,SE,146,0.0,0.0,99,0.00,,,0.10,weatherlink.com 1.10,2013-06-17 06:56:00,
2013-06-17 03:11:00,65.3,65.0,30.02,SE,146,0.0,1.0,99,0.00,,,0.10,weatherlink.com 1.10,2013-06-17 07:11:00,
2013-06-17 03:26:00,65.0,65.0,30.02,SE,146,0.0,0.0,99,0.00,,,0.00,weatherlink.com 1.10,2013-06-17 07:26:00,
2013-06-17 03:41:00,64.3,64.0,30.02,SSE,147,0.0,0.0,99,0.00,,,0.00,weatherlink.com 1.10,2013-06-17 07:41:00,
2013-06-17 03:56:00,64.1,64.0,30.02,SE,146,0.0,1.0,99,0.00,,,0.00,weatherlink.com 1.10,2013-06-17 07:56:00,
2013-06-17 04:11:00,63.9,64.0,30.02,SSE,147,0.0,1.0,99,0.00,,,0.00,weatherlink.com 1.10,2013-06-17 08:11:00,
2013-06-17 04:26:00,64.1,64.0,30.02,ESE,121,0.0,1.0,99,0.00,,,0.00,weatherlink.com 1.10,2013-06-17 08:26:00,
2013-06-17 04:41:00,63.9,64.0,30.02,ESE,121,0.0,1.0,99,0.01,,,0.01,weatherlink.com 1.10,2013-06-17 08:41:00,
2013-06-17 04:56:00,63.6,63.0,30.02,ESE,121,0.0,0.0,99,0.01,,,0.01,weatherlink.com 1.10,2013-06-17 08:56:00,
2013-06-17 05:11:00,63.8,64.0,30.02,ESE,121,0.0,0.0,99,0.01,,,0.01,weatherlink.com 1.10,2013-06-17 09:11:00,
2013-06-17 05:26:00,63.8,64.0,30.02,ESE,122,0.0,0.0,99,0.01,,,0.01,weatherlink.com 1.10,2013-06-17 09:26:00,
2013-06-17 05:41:00,63.8,64.0,30.02,ESE,122,0.0,0.0,99,0.00,,,0.01,weatherlink.com 1.10,2013-06-17 09:41:00,
2013-06-17 05:56:00,63.6,63.0,30.01,ESE,121,0.0,1.0,99,0.00,,,0.01,weatherlink.com 1.10,2013-06-17 09:56:00,
2013-06-17 06:11:00,63.3,63.0,30.02,ESE,121,0.0,1.0,99,0.00,,,0.01,weatherlink.com 1.10,2013-06-17 10:11:00,
2013-06-17 06:26:00,63.0,63.0,30.02,SE,131,0.0,1.0,99,0.00,,,0.01,weatherlink.com 1.10,2013-06-17 10:26:00,
2013-06-17 06:41:00,63.2,63.0,30.02,SE,131,0.0,0.0,99,0.00,,,0.01,weatherlink.com 1.10,2013-06-17 10:41:00,
2013-06-17 06:56:00,63.4,63.0,30.02,SE,131,0.0,1.0,99,0.00,,,0.01,weatherlink.com 1.10,2013-06-17 10:56:00,
2013-06-17 07:11:00,63.7,64.0,30.02,SE,131,0.0,1.0,99,0.00,,,0.01,weatherlink.com 1.10,2013-06-17 11:11:00,
2013-06-17 07:26:00,63.9,64.0,30.03,SE,131,0.0,0.0,99,0.00,,,0.01,weatherlink.com 1.10,2013-06-17 11:26:00,
2013-06-17 07:41:00,64.1,64.0,30.03,SE,131,0.0,0.0,99,0.00,,,0.01,weatherlink.com 1.10,2013-06-17 11:41:00,
2013-06-17 07:56:00,64.2,64.0,30.03,SE,132,0.0,1.0,99,0.00,,,0.01,weatherlink.com 1.10,2013-06-17 11:56:00,
2013-06-17 08:26:00,65.6,65.0,30.03,South,171,0.0,1.0,99,0.00,,,0.01,weatherlink.com 1.10,2013-06-17 12:26:00,
2013-06-17 08:56:00,66.7,66.0,30.02,SSW,197,0.0,1.0,99,0.00,,,0.01,weatherlink.com 1.10,2013-06-17 12:56:00,
2013-06-17 09:11:00,66.8,67.0,30.02,SSE,160,0.0,2.0,99,0.00,,,0.01,weatherlink.com 1.10,2013-06-17 13:11:00,
2013-06-17 09:26:00,67.2,67.0,30.02,South,176,1.0,2.0,98,0.00,,,0.01,weatherlink.com 1.10,2013-06-17 13:26:00,
2013-06-17 09:42:00,68.3,68.0,30.02,West,264,0.0,1.0,99,0.00,,,0.01,weatherlink.com 1.10,2013-06-17 13:42:00,
2013-06-17 09:57:00,69.8,69.0,30.02,SE,125,0.0,2.0,96,0.00,,,0.01,weatherlink.com 1.10,2013-06-17 13:57:00,
2013-06-17 10:12:00,71.3,70.0,30.02,South,181,0.0,1.0,94,0.00,,,0.01,weatherlink.com 1.10,2013-06-17 14:12:00,
2013-06-17 10:42:00,74.1,70.0,30.02,SE,134,1.0,3.0,88,0.00,,,0.01,weatherlink.com 1.10,2013-06-17 14:42:00,
2013-06-17 10:57:00,74.2,70.0,30.02,WSW,244,1.0,2.0,87,0.00,,,0.01,weatherlink.com 1.10,2013-06-17 14:57:00,
2013-06-17 11:12:00,74.6,70.0,30.02,SSE,163,2.0,6.0,85,0.00,,,0.01,weatherlink.com 1.10,2013-06-17 15:12:00,
2013-06-17 11:26:00,76.0,71.0,30.02,West,259,2.0,6.0,83,0.00,,,0.01,weatherlink.com 1.10,2013-06-17 15:26:00,
2013-06-17 11:57:00,76.7,71.0,30.00,NE,53,2.0,2.0,82,0.00,,,0.01,weatherlink.com 1.10,2013-06-17 15:57:00,
2013-06-17 12:12:00,75.1,71.0,30.00,NNE,15,0.0,1.0,87,0.00,,,0.01,weatherlink.com 1.10,2013-06-17 16:12:00,
2013-06-17 12:27:00,77.1,72.0,30.00,SE,141,3.0,3.0,83,0.00,,,0.01,weatherlink.com 1.10,2013-06-17 16:27:00,
2013-06-17 12:42:00,79.1,70.0,29.99,SSE,162,3.0,6.0,74,0.00,,,0.01,weatherlink.com 1.10,2013-06-17 16:42:00,
2013-06-17 12:56:00,78.3,71.0,30.00,SSE,166,3.0,7.0,77,0.00,,,0.01,weatherlink.com 1.10,2013-06-17 16:56:00,
2013-06-17 13:12:00,79.6,71.0,30.00,SW,226,3.0,8.0,76,0.00,,,0.01,weatherlink.com 1.10,2013-06-17 17:12:00,
2013-06-17 13:27:00,80.6,71.0,29.99,South,179,2.0,10.0,72,0.00,,,0.01,weatherlink.com 1.10,2013-06-17 17:27:00,
2013-06-17 13:42:00,81.0,72.0,29.99,SSE,152,1.0,9.0,74,0.00,,,0.01,weatherlink.com 1.10,2013-06-17 17:42:00,
2013-06-17 13:57:00,80.3,70.0,29.98,SW,226,1.0,7.0,71,0.00,,,0.01,weatherlink.com 1.10,2013-06-17 17:57:00,
2013-06-17 14:12:00,80.0,71.0,29.98,SSW,210,3.0,5.0,73,0.00,,,0.01,weatherlink.com 1.10,2013-06-17 18:12:00,
2013-06-17 14:26:00,79.4,70.0,29.98,West,263,3.0,9.0,73,0.00,,,0.01,weatherlink.com 1.10,2013-06-17 18:26:00,
2013-06-17 14:42:00,79.5,69.0,29.98,SSE,148,4.0,7.0,71,0.00,,,0.01,weatherlink.com 1.10,2013-06-17 18:42:00,
2013-06-17 14:56:00,80.6,69.0,29.98,East,79,0.0,6.0,68,0.00,,,0.01,weatherlink.com 1.10,2013-06-17 18:56:00,
2013-06-17 15:12:00,78.9,70.0,29.98,ENE,62,3.0,10.0,75,0.00,,,0.01,weatherlink.com 1.10,2013-06-17 19:12:00,
2013-06-17 15:27:00,77.2,70.0,29.97,NNE,30,3.0,9.0,77,0.00,,,0.01,weatherlink.com 1.10,2013-06-17 19:27:00,
2013-06-17 15:42:00,76.2,68.0,29.96,NNW,342,1.0,10.0,75,0.00,,,0.01,weatherlink.com 1.10,2013-06-17 19:42:00,
2013-06-17 15:57:00,75.3,68.0,29.95,NNW,338,2.0,8.0,77,0.00,,,0.01,weatherlink.com 1.10,2013-06-17 19:57:00,
2013-06-17 16:13:00,74.8,67.0,29.95,NW,326,2.0,6.0,76,0.00,,,0.01,weatherlink.com 1.10,2013-06-17 20:13:00,
2013-06-17 16:28:00,75.8,68.0,29.95,NNW,339,3.0,7.0,76,0.00,,,0.01,weatherlink.com 1.10,2013-06-17 20:28:00,
2013-06-17 16:43:00,76.8,68.0,29.94,NNW,346,2.0,5.0,74,0.00,,,0.01,weatherlink.com 1.10,2013-06-17 20:43:00,
2013-06-17 16:57:00,77.6,69.0,29.93,NNW,347,2.0,4.0,75,0.00,,,0.01,weatherlink.com 1.10,2013-06-17 20:57:00,
2013-06-17 17:27:00,80.7,71.0,29.92,NE,56,1.0,3.0,71,0.00,,,0.01,weatherlink.com 1.10,2013-06-17 21:27:00,
2013-06-17 17:43:00,79.9,71.0,29.92,North,358,0.0,5.0,75,0.00,,,0.01,weatherlink.com 1.10,2013-06-17 21:43:00,
2013-06-17 17:58:00,79.8,71.0,29.91,ENE,60,5.0,7.0,74,0.00,,,0.01,weatherlink.com 1.10,2013-06-17 21:58:00,
2013-06-17 18:13:00,78.5,70.0,29.92,North,11,1.0,5.0,76,0.00,,,0.01,weatherlink.com 1.10,2013-06-17 22:13:00,
2013-06-17 18:28:00,77.6,70.0,29.92,NNE,29,1.0,3.0,78,0.00,,,0.01,weatherlink.com 1.10,2013-06-17 22:28:00,
2013-06-17 18:43:00,77.3,71.0,29.92,ENE,75,2.0,3.0,80,0.00,,,0.01,weatherlink.com 1.10,2013-06-17 22:43:00,
2013-06-17 18:58:00,76.6,71.0,29.93,ENE,71,0.0,1.0,83,0.00,,,0.01,weatherlink.com 1.10,2013-06-17 22:58:00,
2013-06-17 19:13:00,75.8,71.0,29.93,NNE,20,1.0,1.0,84,0.00,,,0.01,weatherlink.com 1.10,2013-06-17 23:13:00,
2013-06-17 19:28:00,74.8,68.0,29.93,NNE,15,6.0,12.0,79,0.00,,,0.01,weatherlink.com 1.10,2013-06-17 23:28:00,
2013-06-17 20:27:00,62.3,58.0,29.95,SSE,164,0.0,4.0,87,0.40,,,0.41,weatherlink.com 1.10,2013-06-18 00:27:00,
2013-06-17 20:57:00,61.1,59.0,29.94,NE,35,4.0,7.0,94,0.42,,,0.43,weatherlink.com 1.10,2013-06-18 00:57:00,
2013-06-17 21:12:00,61.4,59.0,29.95,NNE,29,0.0,2.0,93,0.15,,,0.44,weatherlink.com 1.10,2013-06-18 01:12:00,
2013-06-17 21:27:00,61.1,60.0,29.95,SSE,159,0.0,2.0,95,0.04,,,0.45,weatherlink.com 1.10,2013-06-18 01:27:00,
2013-06-17 21:42:00,61.1,60.0,29.96,SE,137,2.0,2.0,96,0.03,,,0.45,weatherlink.com 1.10,2013-06-18 01:42:00,
2013-06-17 21:57:00,61.2,60.0,29.96,NNE,27,1.0,2.0,96,0.02,,,0.45,weatherlink.com 1.10,2013-06-18 01:57:00,
2013-06-17 22:12:00,61.3,61.0,29.96,NNW,344,0.0,0.0,97,0.01,,,0.45,weatherlink.com 1.10,2013-06-18 02:12:00,
2013-06-17 22:27:00,61.3,61.0,29.96,SE,141,0.0,2.0,97,0.00,,,0.45,weatherlink.com 1.10,2013-06-18 02:27:00,
2013-06-17 22:57:00,61.7,61.0,29.96,SE,141,0.0,1.0,97,0.02,,,0.47,weatherlink.com 1.10,2013-06-18 02:57:00,
2013-06-17 23:12:00,61.5,61.0,29.95,East,94,0.0,3.0,97,0.02,,,0.47,weatherlink.com 1.10,2013-06-18 03:12:00,
2013-06-17 23:57:00,61.7,61.0,29.97,SE,143,0.0,1.0,98,0.00,,,0.47,weatherlink.com 1.10,2013-06-18 03:57:00,